مكناس, المغرب

01:15 PM WET on êèنêè 05, 2015 (GMT +0000)
Meknes | | Change Station
CLOSE
Current Station
Airport
Location: Meknes,
Elevation: 1890 ft
Nearby Weather Stations

Elev 1890 ft 33.88 °N, 5.52 °W | Updated 15 minutes ago

Partly Cloudy
غائم جزئياً
95 °F
Feels Like 97 °F
N
7
ريح متغير ريح from NW

هذا اليوم
High -- | Low -- °F
--% Chance of Precip.
Yesterday
High -- | Low -- °F
Precip. -- في
5:16 AM 7:36 PM
الأحدب الأخير, 85% visible
الضغط 30.04 في
وضوح الرؤية 6.2 أميال
سحابات Few 3300 ft
مؤشر الحرارة 97 °F
نقطة الندى 64 °F
الرطوبة 36%
Rainfall 0.00 في
عمق الثلج Not available.
الأشعة فوق البنفسجية 13 out of 12
Pollen Not available.
جودة الهواء Not available.
Flu Activity Not available.
METAR GMFM 051300Z 31006KT 9999 SCTT026 FEW033CB 35/18 Q1017 NOSIG

More Conditions Fewer Conditions

الضغط 30.04 في
وضوح الرؤية 6.2 أميال
سحابات Few 3300 ft
مؤشر الحرارة 97 °F
نقطة الندى 64 °F
الرطوبة 36%
Rainfall 0.00 في
عمق الثلج Not available.
الأشعة فوق البنفسجية 13 out of 12
Pollen Not available.
جودة الهواء Not available.
Flu Activity Not available.
METAR GMFM 051300Z 31006KT 9999 SCTT026 FEW033CB 35/18 Q1017 NOSIG

More Conditions Fewer Conditions

10-Day Weather Forecast

×

Almanac

علم الفلك

Jul. 05, 2015 Rise Set
Actual Time
Civil Twilight
Nautical Twilight
Astronomical Twilight
قمر
Length Of Visible Light
طول الیوم
Tomorrow will be .
, % of the Moon is Illuminated

Today's Extremes

Country Highs Country Lows

Community

WunderPhotos

Upload Photos

1,835,256 photos uploaded!

WunderBlogs® & News

Nearby

جودة الهواء

  جودة الهواء AQ Index Pollutant
Not available.

عمق الثلج

Station Depth Elevation

Earthquake Activity

City Distance Mag. Time & Date
Minimum magnitude displayed is 2.5.

Coastal Water Temperatures

مكان درجات الحرارة

Stations

Nearby Weather Stations

Station Location الحرارة رياح باردة نقطة الندى الرطوبة ريح Precip. Elev تحديث Type